bureau de piste

METAR LFMD 190700Z AUTO 27016KT CAVOK 13/03 Q1008 BECMG 26015G25KT

TAF LFMD 190200Z 1903/2003 26015G25KT CAVOK

INFORMATION ADDS - 0711 UTC 19 January 2018

Plus d’information sur les terrains : LFMD et VALBERG

Les commentaires sont clos.